sensor_id;sensor_type;location;lat;lon;timestamp;temperature;humidity
16867;DHT22;8550;52.596;13.320;2022-10-14T00:02:52;9.40;99.90
16867;DHT22;8550;52.596;13.320;2022-10-14T00:07:55;9.30;99.90
16867;DHT22;8550;52.596;13.320;2022-10-14T00:12:56;9.20;99.90
16867;DHT22;8550;52.596;13.320;2022-10-14T00:17:58;9.10;99.90
16867;DHT22;8550;52.596;13.320;2022-10-14T00:23:01;9.00;99.90
16867;DHT22;8550;52.596;13.320;2022-10-14T00:28:03;8.90;99.90
16867;DHT22;8550;52.596;13.320;2022-10-14T00:33:05;8.90;99.90
16867;DHT22;8550;52.596;13.320;2022-10-14T00:38:08;8.70;99.90
16867;DHT22;8550;52.596;13.320;2022-10-14T00:43:11;8.60;99.90
16867;DHT22;8550;52.596;13.320;2022-10-14T00:48:15;8.60;99.90
16867;DHT22;8550;52.596;13.320;2022-10-14T00:53:19;8.60;99.90
16867;DHT22;8550;52.596;13.320;2022-10-14T00:58:22;8.60;99.90
16867;DHT22;8550;52.596;13.320;2022-10-14T01:03:24;8.60;99.90
16867;DHT22;8550;52.596;13.320;2022-10-14T01:08:30;8.70;99.90
16867;DHT22;8550;52.596;13.320;2022-10-14T01:13:34;8.70;99.90
16867;DHT22;8550;52.596;13.320;2022-10-14T01:18:46;8.80;99.90
16867;DHT22;8550;52.596;13.320;2022-10-14T01:24:24;8.80;99.90
16867;DHT22;8550;52.596;13.320;2022-10-14T01:35:19;8.80;99.90
16867;DHT22;8550;52.596;13.320;2022-10-14T01:40:31;8.60;99.90
16867;DHT22;8550;52.596;13.320;2022-10-14T01:45:35;8.60;99.90
16867;DHT22;8550;52.596;13.320;2022-10-14T01:50:42;8.60;99.90
16867;DHT22;8550;52.596;13.320;2022-10-14T01:55:47;8.50;99.90
16867;DHT22;8550;52.596;13.320;2022-10-14T02:00:49;8.40;99.90
16867;DHT22;8550;52.596;13.320;2022-10-14T02:05:56;8.40;99.90
16867;DHT22;8550;52.596;13.320;2022-10-14T02:11:08;8.40;99.90
16867;DHT22;8550;52.596;13.320;2022-10-14T02:16:22;8.20;99.90
16867;DHT22;8550;52.596;13.320;2022-10-14T02:21:30;8.20;99.90
16867;DHT22;8550;52.596;13.320;2022-10-14T02:26:34;8.20;99.90
16867;DHT22;8550;52.596;13.320;2022-10-14T02:31:38;8.00;99.90
16867;DHT22;8550;52.596;13.320;2022-10-14T02:36:44;7.90;99.90
16867;DHT22;8550;52.596;13.320;2022-10-14T02:41:47;7.90;99.90
16867;DHT22;8550;52.596;13.320;2022-10-14T02:46:49;7.90;99.90
16867;DHT22;8550;52.596;13.320;2022-10-14T02:51:52;8.00;99.90
16867;DHT22;8550;52.596;13.320;2022-10-14T02:56:54;8.00;99.90
16867;DHT22;8550;52.596;13.320;2022-10-14T03:01:56;8.20;99.90
16867;DHT22;8550;52.596;13.320;2022-10-14T03:06:59;8.20;99.90
16867;DHT22;8550;52.596;13.320;2022-10-14T03:12:01;8.30;99.90
16867;DHT22;8550;52.596;13.320;2022-10-14T03:17:02;8.50;99.90
16867;DHT22;8550;52.596;13.320;2022-10-14T03:22:06;8.70;99.90
16867;DHT22;8550;52.596;13.320;2022-10-14T03:27:07;8.90;99.90
16867;DHT22;8550;52.596;13.320;2022-10-14T03:32:09;8.80;99.90
16867;DHT22;8550;52.596;13.320;2022-10-14T03:37:13;8.70;99.90
16867;DHT22;8550;52.596;13.320;2022-10-14T03:42:14;8.60;99.90
16867;DHT22;8550;52.596;13.320;2022-10-14T03:47:16;8.70;99.90
16867;DHT22;8550;52.596;13.320;2022-10-14T03:52:19;8.60;99.90
16867;DHT22;8550;52.596;13.320;2022-10-14T03:57:21;8.50;99.90
16867;DHT22;8550;52.596;13.320;2022-10-14T04:02:23;8.40;99.90
16867;DHT22;8550;52.596;13.320;2022-10-14T04:07:26;8.40;99.90
16867;DHT22;8550;52.596;13.320;2022-10-14T04:12:28;8.20;99.90
16867;DHT22;8550;52.596;13.320;2022-10-14T04:17:30;8.10;99.90
16867;DHT22;8550;52.596;13.320;2022-10-14T04:22:34;8.10;99.90
16867;DHT22;8550;52.596;13.320;2022-10-14T04:27:37;8.20;99.90
16867;DHT22;8550;52.596;13.320;2022-10-14T04:32:39;8.10;99.90
16867;DHT22;8550;52.596;13.320;2022-10-14T04:37:42;8.00;99.90
16867;DHT22;8550;52.596;13.320;2022-10-14T04:42:44;8.00;99.90
16867;DHT22;8550;52.596;13.320;2022-10-14T04:47:46;8.10;99.90
16867;DHT22;8550;52.596;13.320;2022-10-14T04:52:50;8.20;99.90
16867;DHT22;8550;52.596;13.320;2022-10-14T04:57:51;8.40;99.90
16867;DHT22;8550;52.596;13.320;2022-10-14T05:02:53;8.50;99.90
16867;DHT22;8550;52.596;13.320;2022-10-14T05:07:59;8.70;99.90
16867;DHT22;8550;52.596;13.320;2022-10-14T05:13:02;8.60;99.90
16867;DHT22;8550;52.596;13.320;2022-10-14T05:18:04;8.70;99.90
16867;DHT22;8550;52.596;13.320;2022-10-14T05:23:07;8.70;99.90
16867;DHT22;8550;52.596;13.320;2022-10-14T05:28:09;8.70;99.90
16867;DHT22;8550;52.596;13.320;2022-10-14T05:33:11;8.80;99.90
16867;DHT22;8550;52.596;13.320;2022-10-14T05:38:14;8.90;99.90
16867;DHT22;8550;52.596;13.320;2022-10-14T05:43:16;8.90;99.90
16867;DHT22;8550;52.596;13.320;2022-10-14T05:48:18;9.10;99.90
16867;DHT22;8550;52.596;13.320;2022-10-14T05:53:21;9.20;99.90
16867;DHT22;8550;52.596;13.320;2022-10-14T05:58:23;9.30;99.90
16867;DHT22;8550;52.596;13.320;2022-10-14T06:03:25;9.40;99.90
16867;DHT22;8550;52.596;13.320;2022-10-14T06:08:28;9.60;99.90
16867;DHT22;8550;52.596;13.320;2022-10-14T06:13:30;9.80;99.90
16867;DHT22;8550;52.596;13.320;2022-10-14T06:18:33;9.90;99.90
16867;DHT22;8550;52.596;13.320;2022-10-14T06:23:36;10.00;99.90
16867;DHT22;8550;52.596;13.320;2022-10-14T06:28:39;10.10;99.90
16867;DHT22;8550;52.596;13.320;2022-10-14T06:33:41;10.10;99.90
16867;DHT22;8550;52.596;13.320;2022-10-14T06:38:44;10.20;99.90
16867;DHT22;8550;52.596;13.320;2022-10-14T06:43:46;10.50;99.90
16867;DHT22;8550;52.596;13.320;2022-10-14T06:48:48;10.70;99.90
16867;DHT22;8550;52.596;13.320;2022-10-14T06:53:51;10.90;99.90
16867;DHT22;8550;52.596;13.320;2022-10-14T06:58:53;11.10;99.90
16867;DHT22;8550;52.596;13.320;2022-10-14T07:03:55;11.30;99.90
16867;DHT22;8550;52.596;13.320;2022-10-14T07:08:58;11.40;99.90
16867;DHT22;8550;52.596;13.320;2022-10-14T07:14:00;11.70;99.90
16867;DHT22;8550;52.596;13.320;2022-10-14T07:19:01;11.80;99.90
16867;DHT22;8550;52.596;13.320;2022-10-14T07:24:05;11.90;99.90
16867;DHT22;8550;52.596;13.320;2022-10-14T07:29:07;12.00;99.90
16867;DHT22;8550;52.596;13.320;2022-10-14T07:34:10;12.10;99.90
16867;DHT22;8550;52.596;13.320;2022-10-14T07:39:13;12.10;99.90
16867;DHT22;8550;52.596;13.320;2022-10-14T07:44:15;12.30;99.90
16867;DHT22;8550;52.596;13.320;2022-10-14T07:49:18;12.40;99.90
16867;DHT22;8550;52.596;13.320;2022-10-14T07:54:24;12.50;99.90
16867;DHT22;8550;52.596;13.320;2022-10-14T07:59:28;12.70;99.90
16867;DHT22;8550;52.596;13.320;2022-10-14T08:04:30;12.80;99.90
16867;DHT22;8550;52.596;13.320;2022-10-14T08:09:35;12.80;99.90
16867;DHT22;8550;52.596;13.320;2022-10-14T08:14:37;12.90;99.90
16867;DHT22;8550;52.596;13.320;2022-10-14T08:19:38;13.10;99.90
16867;DHT22;8550;52.596;13.320;2022-10-14T08:24:42;13.20;99.90
16867;DHT22;8550;52.596;13.320;2022-10-14T08:29:44;13.30;99.90
16867;DHT22;8550;52.596;13.320;2022-10-14T08:34:45;13.60;99.90
16867;DHT22;8550;52.596;13.320;2022-10-14T08:39:49;13.90;99.90
16867;DHT22;8550;52.596;13.320;2022-10-14T08:44:53;14.20;99.90
16867;DHT22;8550;52.596;13.320;2022-10-14T08:50:01;14.60;99.90
16867;DHT22;8550;52.596;13.320;2022-10-14T08:55:15;14.90;99.90
16867;DHT22;8550;52.596;13.320;2022-10-14T09:00:20;15.40;99.90
16867;DHT22;8550;52.596;13.320;2022-10-14T09:05:25;15.60;99.90
16867;DHT22;8550;52.596;13.320;2022-10-14T09:10:33;16.00;99.90
16867;DHT22;8550;52.596;13.320;2022-10-14T09:15:39;16.40;99.90
16867;DHT22;8550;52.596;13.320;2022-10-14T09:20:42;16.40;99.90
16867;DHT22;8550;52.596;13.320;2022-10-14T09:25:53;16.60;99.90
16867;DHT22;8550;52.596;13.320;2022-10-14T09:30:55;16.60;99.90
16867;DHT22;8550;52.596;13.320;2022-10-14T09:35:57;16.80;99.90
16867;DHT22;8550;52.596;13.320;2022-10-14T09:41:01;17.30;99.90
16867;DHT22;8550;52.596;13.320;2022-10-14T09:46:04;17.80;99.90
16867;DHT22;8550;52.596;13.320;2022-10-14T09:51:08;18.40;99.90
16867;DHT22;8550;52.596;13.320;2022-10-14T09:56:13;18.40;99.90
16867;DHT22;8550;52.596;13.320;2022-10-14T10:01:17;18.60;99.90
16867;DHT22;8550;52.596;13.320;2022-10-14T10:06:21;18.30;99.90
16867;DHT22;8550;52.596;13.320;2022-10-14T10:11:30;18.30;99.90
16867;DHT22;8550;52.596;13.320;2022-10-14T10:16:36;18.10;99.90
16867;DHT22;8550;52.596;13.320;2022-10-14T10:21:38;18.00;99.90
16867;DHT22;8550;52.596;13.320;2022-10-14T10:26:41;18.30;99.90
16867;DHT22;8550;52.596;13.320;2022-10-14T10:31:53;18.50;99.90
16867;DHT22;8550;52.596;13.320;2022-10-14T10:37:03;18.70;99.90
16867;DHT22;8550;52.596;13.320;2022-10-14T10:42:15;19.00;99.90
16867;DHT22;8550;52.596;13.320;2022-10-14T10:47:31;19.10;99.90
16867;DHT22;8550;52.596;13.320;2022-10-14T10:52:42;19.20;99.90
16867;DHT22;8550;52.596;13.320;2022-10-14T10:57:58;19.40;99.90
16867;DHT22;8550;52.596;13.320;2022-10-14T11:03:15;18.80;99.90
16867;DHT22;8550;52.596;13.320;2022-10-14T11:08:43;18.30;99.90
16867;DHT22;8550;52.596;13.320;2022-10-14T11:14:14;18.00;99.90
16867;DHT22;8550;52.596;13.320;2022-10-14T11:19:23;18.60;99.90
16867;DHT22;8550;52.596;13.320;2022-10-14T11:24:35;19.00;99.90
16867;DHT22;8550;52.596;13.320;2022-10-14T11:30:11;18.90;99.90
16867;DHT22;8550;52.596;13.320;2022-10-14T11:35:23;19.30;99.90
16867;DHT22;8550;52.596;13.320;2022-10-14T11:40:36;20.40;99.90
16867;DHT22;8550;52.596;13.320;2022-10-14T11:45:51;21.50;99.90
16867;DHT22;8550;52.596;13.320;2022-10-14T11:50:58;22.70;98.70
16867;DHT22;8550;52.596;13.320;2022-10-14T11:56:08;22.90;96.10
16867;DHT22;8550;52.596;13.320;2022-10-14T12:01:13;21.70;97.40
16867;DHT22;8550;52.596;13.320;2022-10-14T12:06:23;20.30;99.90
16867;DHT22;8550;52.596;13.320;2022-10-14T12:11:28;19.50;99.90
16867;DHT22;8550;52.596;13.320;2022-10-14T12:16:32;19.30;99.90
16867;DHT22;8550;52.596;13.320;2022-10-14T12:21:39;19.10;99.90
16867;DHT22;8550;52.596;13.320;2022-10-14T12:26:50;18.60;99.90
16867;DHT22;8550;52.596;13.320;2022-10-14T12:32:16;18.50;99.90
16867;DHT22;8550;52.596;13.320;2022-10-14T12:37:50;18.40;99.90
16867;DHT22;8550;52.596;13.320;2022-10-14T12:48:33;17.80;99.90
16867;DHT22;8550;52.596;13.320;2022-10-14T12:53:36;17.70;99.90
16867;DHT22;8550;52.596;13.320;2022-10-14T12:58:41;17.80;99.90
16867;DHT22;8550;52.596;13.320;2022-10-14T13:03:52;18.50;99.90
16867;DHT22;8550;52.596;13.320;2022-10-14T13:14:55;18.80;99.90
16867;DHT22;8550;52.596;13.320;2022-10-14T13:19:59;19.10;99.90
16867;DHT22;8550;52.596;13.320;2022-10-14T13:25:04;19.50;99.90
16867;DHT22;8550;52.596;13.320;2022-10-14T13:30:15;19.50;99.90
16867;DHT22;8550;52.596;13.320;2022-10-14T13:35:25;19.10;99.90
16867;DHT22;8550;52.596;13.320;2022-10-14T13:40:29;18.90;99.90
16867;DHT22;8550;52.596;13.320;2022-10-14T13:45:38;18.60;99.90
16867;DHT22;8550;52.596;13.320;2022-10-14T13:50:43;18.50;99.90
16867;DHT22;8550;52.596;13.320;2022-10-14T13:55:46;18.30;99.90
16867;DHT22;8550;52.596;13.320;2022-10-14T14:00:59;18.30;99.90
16867;DHT22;8550;52.596;13.320;2022-10-14T14:06:10;18.30;99.90
16867;DHT22;8550;52.596;13.320;2022-10-14T14:11:18;18.10;99.90
16867;DHT22;8550;52.596;13.320;2022-10-14T14:16:22;17.80;99.90
16867;DHT22;8550;52.596;13.320;2022-10-14T14:21:26;17.70;99.90
16867;DHT22;8550;52.596;13.320;2022-10-14T14:26:33;17.80;99.90
16867;DHT22;8550;52.596;13.320;2022-10-14T14:31:37;17.80;99.90
16867;DHT22;8550;52.596;13.320;2022-10-14T14:36:40;17.60;99.90
16867;DHT22;8550;52.596;13.320;2022-10-14T14:41:49;17.50;99.90
16867;DHT22;8550;52.596;13.320;2022-10-14T14:46:52;17.50;99.90
16867;DHT22;8550;52.596;13.320;2022-10-14T14:51:57;17.60;99.90
16867;DHT22;8550;52.596;13.320;2022-10-14T14:57:03;19.60;99.90
16867;DHT22;8550;52.596;13.320;2022-10-14T15:02:13;22.50;98.70
16867;DHT22;8550;52.596;13.320;2022-10-14T15:07:18;22.80;95.50
16867;DHT22;8550;52.596;13.320;2022-10-14T15:12:24;22.90;95.10
16867;DHT22;8550;52.596;13.320;2022-10-14T15:17:28;21.40;97.60
16867;DHT22;8550;52.596;13.320;2022-10-14T15:22:33;19.70;99.90
16867;DHT22;8550;52.596;13.320;2022-10-14T15:27:47;18.80;99.90
16867;DHT22;8550;52.596;13.320;2022-10-14T15:32:51;18.10;99.90
16867;DHT22;8550;52.596;13.320;2022-10-14T15:37:55;17.60;99.90
16867;DHT22;8550;52.596;13.320;2022-10-14T15:42:57;17.20;99.90
16867;DHT22;8550;52.596;13.320;2022-10-14T15:48:01;17.00;99.90
16867;DHT22;8550;52.596;13.320;2022-10-14T15:53:07;16.80;99.90
16867;DHT22;8550;52.596;13.320;2022-10-14T15:58:10;16.70;99.90
16867;DHT22;8550;52.596;13.320;2022-10-14T16:03:11;16.50;99.90
16867;DHT22;8550;52.596;13.320;2022-10-14T16:08:15;16.30;99.90
16867;DHT22;8550;52.596;13.320;2022-10-14T16:13:17;16.00;99.90
16867;DHT22;8550;52.596;13.320;2022-10-14T16:18:19;15.70;99.90
16867;DHT22;8550;52.596;13.320;2022-10-14T16:23:24;15.40;99.90
16867;DHT22;8550;52.596;13.320;2022-10-14T16:28:25;15.30;99.90
16867;DHT22;8550;52.596;13.320;2022-10-14T16:33:27;15.10;99.90
16867;DHT22;8550;52.596;13.320;2022-10-14T16:38:30;15.10;99.90
16867;DHT22;8550;52.596;13.320;2022-10-14T16:43:32;15.10;99.90
16867;DHT22;8550;52.596;13.320;2022-10-14T16:48:34;15.10;99.90
16867;DHT22;8550;52.596;13.320;2022-10-14T16:53:37;15.20;99.90
16867;DHT22;8550;52.596;13.320;2022-10-14T16:58:44;15.10;99.90
16867;DHT22;8550;52.596;13.320;2022-10-14T17:03:46;15.00;99.90
16867;DHT22;8550;52.596;13.320;2022-10-14T17:08:49;15.00;99.90
16867;DHT22;8550;52.596;13.320;2022-10-14T17:13:52;14.90;99.90
16867;DHT22;8550;52.596;13.320;2022-10-14T17:18:54;14.90;99.90
16867;DHT22;8550;52.596;13.320;2022-10-14T17:23:59;14.90;99.90
16867;DHT22;8550;52.596;13.320;2022-10-14T17:29:01;14.90;99.90
16867;DHT22;8550;52.596;13.320;2022-10-14T17:34:03;15.00;99.90
16867;DHT22;8550;52.596;13.320;2022-10-14T17:39:07;15.00;99.90
16867;DHT22;8550;52.596;13.320;2022-10-14T17:44:11;15.00;99.90
16867;DHT22;8550;52.596;13.320;2022-10-14T17:49:13;14.80;99.90
16867;DHT22;8550;52.596;13.320;2022-10-14T17:54:16;14.70;99.90
16867;DHT22;8550;52.596;13.320;2022-10-14T17:59:18;14.70;99.90
16867;DHT22;8550;52.596;13.320;2022-10-14T18:04:20;14.70;99.90
16867;DHT22;8550;52.596;13.320;2022-10-14T18:09:23;14.70;99.90
16867;DHT22;8550;52.596;13.320;2022-10-14T18:14:25;14.80;99.90
16867;DHT22;8550;52.596;13.320;2022-10-14T18:19:27;14.80;99.90
16867;DHT22;8550;52.596;13.320;2022-10-14T18:24:30;14.80;99.90
16867;DHT22;8550;52.596;13.320;2022-10-14T18:29:32;14.70;99.90
16867;DHT22;8550;52.596;13.320;2022-10-14T18:34:34;14.60;99.90
16867;DHT22;8550;52.596;13.320;2022-10-14T18:39:37;14.50;99.90
16867;DHT22;8550;52.596;13.320;2022-10-14T18:44:39;14.40;99.90
16867;DHT22;8550;52.596;13.320;2022-10-14T18:49:40;14.30;99.90
16867;DHT22;8550;52.596;13.320;2022-10-14T18:54:44;14.30;99.90
16867;DHT22;8550;52.596;13.320;2022-10-14T18:59:45;14.20;99.90
16867;DHT22;8550;52.596;13.320;2022-10-14T19:04:47;14.20;99.90
16867;DHT22;8550;52.596;13.320;2022-10-14T19:09:50;14.10;99.90
16867;DHT22;8550;52.596;13.320;2022-10-14T19:14:52;14.30;99.90
16867;DHT22;8550;52.596;13.320;2022-10-14T19:19:54;14.40;99.90
16867;DHT22;8550;52.596;13.320;2022-10-14T19:24:57;14.60;99.90
16867;DHT22;8550;52.596;13.320;2022-10-14T19:29:59;14.60;99.90
16867;DHT22;8550;52.596;13.320;2022-10-14T19:35:01;14.60;99.90
16867;DHT22;8550;52.596;13.320;2022-10-14T19:40:04;14.50;99.90
16867;DHT22;8550;52.596;13.320;2022-10-14T19:45:07;14.40;99.90
16867;DHT22;8550;52.596;13.320;2022-10-14T19:50:09;14.40;99.90
16867;DHT22;8550;52.596;13.320;2022-10-14T19:55:12;14.40;99.90
16867;DHT22;8550;52.596;13.320;2022-10-14T20:00:15;14.40;99.90
16867;DHT22;8550;52.596;13.320;2022-10-14T20:05:17;14.40;99.90
16867;DHT22;8550;52.596;13.320;2022-10-14T20:10:20;14.40;99.90
16867;DHT22;8550;52.596;13.320;2022-10-14T20:15:22;14.50;99.90
16867;DHT22;8550;52.596;13.320;2022-10-14T20:20:24;14.50;99.90
16867;DHT22;8550;52.596;13.320;2022-10-14T20:25:27;14.50;99.90
16867;DHT22;8550;52.596;13.320;2022-10-14T20:30:28;14.60;99.90
16867;DHT22;8550;52.596;13.320;2022-10-14T20:35:30;14.70;99.90
16867;DHT22;8550;52.596;13.320;2022-10-14T20:40:34;14.60;99.90
16867;DHT22;8550;52.596;13.320;2022-10-14T20:45:36;14.60;99.90
16867;DHT22;8550;52.596;13.320;2022-10-14T20:50:38;14.60;99.90
16867;DHT22;8550;52.596;13.320;2022-10-14T20:55:41;14.70;99.90
16867;DHT22;8550;52.596;13.320;2022-10-14T21:00:43;14.70;99.90
16867;DHT22;8550;52.596;13.320;2022-10-14T21:05:44;14.70;99.90
16867;DHT22;8550;52.596;13.320;2022-10-14T21:10:47;14.60;99.90
16867;DHT22;8550;52.596;13.320;2022-10-14T21:15:49;14.60;99.90
16867;DHT22;8550;52.596;13.320;2022-10-14T21:20:51;14.60;99.90
16867;DHT22;8550;52.596;13.320;2022-10-14T21:25:55;14.60;99.90
16867;DHT22;8550;52.596;13.320;2022-10-14T21:30:57;14.50;99.90
16867;DHT22;8550;52.596;13.320;2022-10-14T21:36:03;14.50;99.90
16867;DHT22;8550;52.596;13.320;2022-10-14T21:41:07;14.60;99.90
16867;DHT22;8550;52.596;13.320;2022-10-14T21:46:11;14.70;99.90
16867;DHT22;8550;52.596;13.320;2022-10-14T21:51:15;14.70;99.90
16867;DHT22;8550;52.596;13.320;2022-10-14T21:56:19;14.70;99.90
16867;DHT22;8550;52.596;13.320;2022-10-14T22:01:22;14.70;99.90
16867;DHT22;8550;52.596;13.320;2022-10-14T22:06:26;14.70;99.90
16867;DHT22;8550;52.596;13.320;2022-10-14T22:11:30;14.70;99.90
16867;DHT22;8550;52.596;13.320;2022-10-14T22:16:33;14.70;99.90
16867;DHT22;8550;52.596;13.320;2022-10-14T22:21:37;14.70;99.90
16867;DHT22;8550;52.596;13.320;2022-10-14T22:26:40;14.70;99.90
16867;DHT22;8550;52.596;13.320;2022-10-14T22:31:43;14.70;99.90
16867;DHT22;8550;52.596;13.320;2022-10-14T22:36:45;14.60;99.90
16867;DHT22;8550;52.596;13.320;2022-10-14T22:41:48;14.50;99.90
16867;DHT22;8550;52.596;13.320;2022-10-14T22:46:49;14.40;99.90
16867;DHT22;8550;52.596;13.320;2022-10-14T22:51:51;14.40;99.90
16867;DHT22;8550;52.596;13.320;2022-10-14T22:56:54;14.40;99.90
16867;DHT22;8550;52.596;13.320;2022-10-14T23:01:56;14.30;99.90
16867;DHT22;8550;52.596;13.320;2022-10-14T23:06:58;14.40;99.90
16867;DHT22;8550;52.596;13.320;2022-10-14T23:12:01;14.40;99.90
16867;DHT22;8550;52.596;13.320;2022-10-14T23:17:03;14.40;99.90
16867;DHT22;8550;52.596;13.320;2022-10-14T23:22:05;14.40;99.90
16867;DHT22;8550;52.596;13.320;2022-10-14T23:27:08;14.30;99.90
16867;DHT22;8550;52.596;13.320;2022-10-14T23:32:10;14.30;99.90
16867;DHT22;8550;52.596;13.320;2022-10-14T23:37:11;14.30;99.90
16867;DHT22;8550;52.596;13.320;2022-10-14T23:42:15;14.30;99.90
16867;DHT22;8550;52.596;13.320;2022-10-14T23:47:16;14.40;99.90
16867;DHT22;8550;52.596;13.320;2022-10-14T23:52:18;14.30;99.90
16867;DHT22;8550;52.596;13.320;2022-10-14T23:57:21;14.40;99.90
